Terminal Aerodrome Forecast
Issued by NWS

Current Version | Previous Version | Graphics & Text | Print | Product List | Glossary On
Versions: 1 2 3 4 5 6 7 8 9 10 11 12 13 14 15 16 17 18 19 20
000
FTUS41 KILN 151013 AAA
TAFLCK
TAF AMD
KLCK 151013Z 1510/1606 VRB03KT 4SM BR BKN200
      TEMPO 1510/1512 1SM BR VV007
     FM151400 26006KT P6SM BKN040
     FM160000 00000KT P6SM SCT200=

USA.gov is the U.S. government's official web portal to all federal, state and local government web resources and services.